Nearby METAR Reports

 

EGNM - Leeds And Bradford, United Kingdom
Distance from station: N 11mi, 18km
Updated: 16/06/2019 11:20
Partly cloudy
Partly cloudy
 Wind from S
Wind: S 10 mph , 17 km/h
Temperature: 14°C
Dew Point: 9°C
Humidity: 72%
Barometer: 1012 hPa
Clouds: Partly cloudy
Visibility: 6 miles , 10 km
Cloud details: Partly cloudy 762 m
2019/06/16 11:20 EGNM 161120Z 19009KT 150V240 9999 SCT025 14/09 Q1012
EGXU - Linton-On-Ouse, United Kingdom
Distance from station: NNE 28mi, 45km
Updated: 16/06/2019 10:50
Mostly cloudy
Mostly cloudy
 Wind from S
Wind: S 18 mph , 30 km/h
Temperature: 16°C
Dew Point: 10°C
Humidity: 68%
Barometer: 1012 hPa
Clouds: Mostly cloudy
Visibility: 6 miles , 10 km
Cloud details: Few Clouds 2134 m
Mostly cloudy 2743 m
2019/06/16 10:50 EGXU 161050Z AUTO 19016KT 9999 // FEW070/// BKN090/// 16/10 Q1012
 
EGCN - Doncaster Sheffield, United Kingdom
Distance from station: ESE 30mi, 45km
Updated: 16/06/2019 11:20
Mostly cloudy
Mostly cloudy
 Wind from S
Wind: S 16 mph , 26 km/h
Temperature: 16°C
Dew Point: 12°C
Humidity: 77%
Barometer: 1014 hPa
Clouds: Mostly cloudy
Visibility: 6 miles , 10 km
Cloud details: Partly cloudy 488 m
Mostly cloudy 671 m
2019/06/16 11:20 EGCN 161120Z 18014KT 9999 SCT016 BKN022 16/12 Q1014
EGXZ - Topcliffe RAF, United Kingdom
Distance from station: NNE 36mi, 57km
Updated: 16/06/2019 10:50
Mostly cloudy
Mostly cloudy
 Wind from S
Wind: S 12 mph , 19 km/h
Temperature: 15°C
Dew Point: 10°C
Humidity: 72%
Barometer: 1012 hPa
Clouds: Mostly cloudy
Visibility: 6 miles , 10 km
Cloud details: Mostly cloudy 1463 m
2019/06/16 10:50 EGXZ 161050Z AUTO 18010KT 9999 BKN048/// 15/10 Q1012 RERA
 
EGCC - Manchester Intl, United Kingdom
Distance from station: SW 36mi, 58km
Updated: 16/06/2019 11:20
Mostly cloudy
Mostly cloudy
 Wind from SSW
Wind: SSW 7 mph , 11 km/h
Temperature: 16°C
Dew Point: 11°C
Humidity: 72%
Barometer: 1012 hPa
Clouds: Mostly cloudy
Visibility: 6 miles , 10 km
Cloud details: Mostly cloudy 671 m
2019/06/16 11:20 EGCC 161120Z AUTO 20006KT 170V230 9999 BKN022 16/11 Q1012 TEMPO SHRA
EGXE - Leeming RAF, United Kingdom
Distance from station: N 40mi, 65km
Updated: 16/06/2019 10:50
Mostly cloudy
Mostly cloudy
 Wind from SSW
Wind: SSW 12 mph , 19 km/h
Temperature: 15°C
Dew Point: 11°C
Humidity: 77%
Barometer: 1012 hPa
Clouds: Mostly cloudy
Visibility: 6 miles , 10 km
Cloud details: Few Clouds 701 m
Mostly cloudy 1524 m
2019/06/16 10:50 EGXE 161050Z AUTO 20010KT 9999 FEW023/// BKN050/// 15/11 Q1012 RERA